Time;durP1;ratioP1;P1;durP2;ratioP2;P2;SDS_P1;SDS_P2;PMS_P1;PMS_P2;Temp;Humidity;BMP_temperature;BMP_pressure;BME280_temperature;BME280_humidity;BME280_pressure;Samples;Min_cycle;Max_cycle;Signal;HPM_P1;HPM_P2
2023/06/08 00:00:14;;;;;;;2.28;1.35;;;14.40;99.90;;;;;;7403966;19;19982;-78
2023/06/08 00:02:53;;;;;;;3.58;1.02;;;14.30;99.90;;;;;;7404001;19;19970;-78
2023/06/08 00:05:48;;;;;;;1.40;0.82;;;14.40;99.90;;;;;;7402720;19;19915;-78
2023/06/08 00:08:18;;;;;;;1.80;0.80;;;14.20;99.90;;;;;;7403417;19;19982;-78
2023/06/08 00:10:48;;;;;;;2.33;1.20;;;14.20;99.90;;;;;;7402805;19;19923;-78
2023/06/08 00:13:20;;;;;;;1.50;0.90;;;14.30;99.90;;;;;;7404750;19;20317;-78
2023/06/08 00:15:49;;;;;;;2.05;1.00;;;14.70;99.90;;;;;;7403237;19;19929;-78
2023/06/08 00:18:19;;;;;;;1.35;0.90;;;14.40;99.90;;;;;;7404847;19;19923;-78
2023/06/08 00:20:51;;;;;;;1.50;1.08;;;14.20;99.90;;;;;;7403818;19;19926;-78
2023/06/08 00:23:21;;;;;;;1.90;0.90;;;14.20;99.90;;;;;;7403637;19;19918;-78
2023/06/08 00:25:50;;;;;;;2.88;1.05;;;14.20;99.90;;;;;;7400505;19;19918;-78
2023/06/08 00:28:31;;;;;;;1.80;1.08;;;14.10;99.90;;;;;;7404657;19;20328;-78
2023/06/08 00:31:01;;;;;;;1.27;0.90;;;14.10;99.90;;;;;;7403568;19;19958;-78
2023/06/08 00:33:30;;;;;;;3.17;1.25;;;14.10;99.90;;;;;;7402227;19;20329;-78
2023/06/08 00:36:00;;;;;;;2.35;1.13;;;14.10;99.90;;;;;;7403320;19;20006;-77
2023/06/08 00:38:29;;;;;;;2.30;1.00;;;14.10;99.90;;;;;;7403584;19;19939;-77
2023/06/08 00:41:12;;;;;;;1.88;1.00;;;14.00;99.90;;;;;;7404145;19;19942;-80
2023/06/08 00:43:46;;;;;;;1.98;0.80;;;14.00;99.90;;;;;;7402422;19;19918;-80
2023/06/08 00:46:21;;;;;;;1.83;0.95;;;14.20;99.90;;;;;;7403634;19;19922;-78
2023/06/08 00:48:51;;;;;;;2.63;0.93;;;14.00;99.90;;;;;;7402858;19;19923;-78
2023/06/08 00:52:02;;;;;;;1.48;1.05;;;14.10;99.90;;;;;;7400890;19;19927;-77
2023/06/08 00:54:32;;;;;;;2.65;1.05;;;14.00;99.90;;;;;;7402231;19;20340;-80
2023/06/08 00:57:25;;;;;;;1.90;0.90;;;14.10;99.90;;;;;;7398825;19;19918;-80
2023/06/08 00:59:59;;;;;;;2.33;1.05;;;13.90;99.90;;;;;;7402283;19;19923;-80
2023/06/08 01:02:47;;;;;;;1.88;1.20;;;13.90;99.90;;;;;;7402150;19;20392;-80
2023/06/08 01:05:18;;;;;;;2.83;1.10;;;13.70;99.90;;;;;;7401729;19;19918;-80
2023/06/08 01:08:01;;;;;;;2.70;1.10;;;13.70;99.90;;;;;;7403944;19;19947;-80
2023/06/08 01:10:38;;;;;;;1.67;0.93;;;13.70;99.90;;;;;;7400115;19;19923;-80
2023/06/08 01:13:25;;;;;;;2.60;1.20;;;13.90;99.90;;;;;;7398742;19;19930;-80
2023/06/08 01:16:03;;;;;;;1.77;1.20;;;13.90;99.90;;;;;;7399197;19;19925;-80
2023/06/08 01:18:38;;;;;;;2.88;1.25;;;13.90;99.90;;;;;;7400859;19;19922;-80
2023/06/08 01:21:22;;;;;;;1.50;0.93;;;13.90;99.90;;;;;;7402639;19;19925;-80
2023/06/08 01:24:12;;;;;;;2.70;1.40;;;13.90;99.90;;;;;;7402135;19;19950;-80
2023/06/08 01:26:43;;;;;;;2.63;1.05;;;13.80;99.90;;;;;;7401486;19;19938;-80
2023/06/08 01:29:15;;;;;;;2.88;1.33;;;13.80;99.90;;;;;;7401214;19;19926;-79
2023/06/08 01:31:45;;;;;;;2.03;1.17;;;13.70;99.90;;;;;;7400519;19;20369;-80
2023/06/08 01:34:16;;;;;;;2.47;1.08;;;13.70;99.90;;;;;;7401437;19;19943;-80
2023/06/08 01:36:54;;;;;;;1.95;1.20;;;13.60;99.90;;;;;;7402574;19;19922;-80
2023/06/08 01:39:38;;;;;;;1.77;1.10;;;13.70;99.90;;;;;;7406228;19;20324;-80
2023/06/08 01:42:10;;;;;;;2.83;1.40;;;13.60;99.90;;;;;;7396732;19;19927;-80
2023/06/08 01:44:44;;;;;;;2.38;1.40;;;13.60;99.90;;;;;;7399407;19;19962;-80
2023/06/08 01:47:16;;;;;;;1.90;1.17;;;13.70;99.90;;;;;;7408640;19;19931;-80
2023/06/08 01:49:47;;;;;;;1.95;1.08;;;13.70;99.90;;;;;;7408731;19;19990;-80
2023/06/08 01:52:20;;;;;;;1.42;0.80;;;13.70;99.90;;;;;;7407760;19;20255;-77
2023/06/08 01:54:52;;;;;;;1.27;0.98;;;13.70;99.90;;;;;;7405620;19;19944;-78
2023/06/08 01:57:21;;;;;;;2.63;1.20;;;13.50;99.90;;;;;;7405436;19;19978;-80
2023/06/08 01:59:51;;;;;;;1.77;1.40;;;13.60;99.90;;;;;;7407903;19;20546;-80
2023/06/08 02:02:21;;;;;;;2.33;1.40;;;13.50;99.90;;;;;;7407444;19;19926;-80
2023/06/08 02:04:50;;;;;;;2.70;1.25;;;13.60;99.90;;;;;;7407582;19;19990;-80
2023/06/08 02:07:21;;;;;;;5.25;1.48;;;13.50;99.90;;;;;;7408091;19;19926;-79
2023/06/08 02:09:52;;;;;;;1.80;1.20;;;13.30;99.90;;;;;;7407974;19;19927;-80
2023/06/08 02:12:21;;;;;;;1.85;1.00;;;13.50;99.90;;;;;;7404472;19;19929;-80
2023/06/08 02:14:50;;;;;;;2.85;1.20;;;13.30;99.90;;;;;;7407271;19;19930;-80
2023/06/08 02:17:26;;;;;;;2.25;1.40;;;13.30;99.90;;;;;;7407441;19;19919;-80
2023/06/08 02:20:06;;;;;;;2.50;1.20;;;13.30;99.90;;;;;;7407438;19;20318;-80
2023/06/08 02:22:35;;;;;;;1.42;1.23;;;13.30;99.90;;;;;;7410492;19;19923;-80
2023/06/08 02:25:09;;;;;;;2.40;1.40;;;13.30;99.90;;;;;;7407136;19;20022;-80
2023/06/08 02:27:38;;;;;;;3.00;1.30;;;13.20;99.90;;;;;;7407024;19;19952;-80
2023/06/08 02:30:10;;;;;;;1.27;0.93;;;13.20;99.90;;;;;;7409214;19;19911;-80
2023/06/08 02:32:41;;;;;;;2.78;1.00;;;13.20;99.90;;;;;;7408345;19;19978;-80
2023/06/08 02:35:11;;;;;;;3.15;1.05;;;13.30;99.90;;;;;;7407508;19;20379;-80
2023/06/08 02:37:42;;;;;;;1.70;0.93;;;13.30;99.90;;;;;;7406874;19;19946;-80
2023/06/08 02:40:14;;;;;;;2.50;1.25;;;13.40;99.90;;;;;;7408912;19;19946;-80
2023/06/08 02:42:43;;;;;;;2.08;1.00;;;13.30;99.90;;;;;;7404292;19;20374;-80
2023/06/08 02:45:13;;;;;;;2.03;1.02;;;13.20;99.90;;;;;;7408323;19;19978;-80
2023/06/08 02:47:42;;;;;;;1.90;1.05;;;13.20;99.90;;;;;;7405197;19;20287;-80
2023/06/08 02:50:11;;;;;;;1.60;0.88;;;13.30;99.90;;;;;;7406868;19;19929;-80
2023/06/08 02:52:44;;;;;;;1.92;1.02;;;13.30;99.90;;;;;;7403993;19;19910;-80
2023/06/08 02:55:15;;;;;;;2.30;1.00;;;13.10;99.90;;;;;;7407839;19;19922;-80
2023/06/08 02:57:48;;;;;;;2.78;0.93;;;13.20;99.90;;;;;;7403649;19;19990;-80
2023/06/08 03:00:19;;;;;;;1.88;1.20;;;13.10;99.90;;;;;;7406437;19;19931;-80
2023/06/08 03:02:48;;;;;;;2.58;1.30;;;13.20;99.90;;;;;;7406308;19;19919;-80
2023/06/08 03:05:17;;;;;;;1.40;1.00;;;13.10;99.90;;;;;;7406894;19;19919;-80
2023/06/08 03:07:47;;;;;;;2.50;1.70;;;13.10;99.90;;;;;;7406162;19;20437;-80
2023/06/08 03:10:19;;;;;;;3.15;1.45;;;13.20;99.90;;;;;;7407328;19;19922;-80
2023/06/08 03:12:53;;;;;;;1.73;1.10;;;13.20;99.90;;;;;;7405637;19;19970;-80
2023/06/08 03:15:25;;;;;;;1.20;0.93;;;13.20;99.90;;;;;;7406445;19;19922;-80
2023/06/08 03:17:54;;;;;;;3.03;1.33;;;13.10;99.90;;;;;;7404254;19;19990;-80
2023/06/08 03:20:24;;;;;;;2.58;1.20;;;13.10;99.90;;;;;;7406429;19;19922;-80
2023/06/08 03:22:53;;;;;;;1.77;1.08;;;13.00;99.90;;;;;;7407244;19;19921;-80
2023/06/08 03:25:25;;;;;;;2.53;1.20;;;12.90;99.90;;;;;;7406588;19;19919;-80
2023/06/08 03:27:54;;;;;;;1.80;1.00;;;13.10;99.90;;;;;;7404632;19;22099;-80
2023/06/08 03:30:23;;;;;;;1.38;0.90;;;13.00;99.90;;;;;;7406115;19;19918;-80
2023/06/08 03:32:53;;;;;;;2.90;0.90;;;13.00;99.90;;;;;;7406782;19;20274;-80
2023/06/08 03:35:22;;;;;;;1.80;0.95;;;13.00;99.90;;;;;;7405831;19;20400;-80
2023/06/08 03:37:51;;;;;;;1.27;0.90;;;13.00;99.90;;;;;;7404449;19;20563;-80
2023/06/08 03:40:20;;;;;;;2.00;1.10;;;13.00;99.90;;;;;;7405405;19;19922;-80
2023/06/08 03:42:52;;;;;;;2.28;0.95;;;13.00;99.90;;;;;;7406359;19;20403;-80
2023/06/08 03:45:21;;;;;;;2.00;0.90;;;13.00;99.90;;;;;;7406352;19;19985;-80
2023/06/08 03:47:50;;;;;;;2.25;0.98;;;13.20;99.90;;;;;;7402738;19;19986;-80
2023/06/08 03:50:19;;;;;;;2.38;1.10;;;13.20;99.90;;;;;;7406143;19;19926;-80
2023/06/08 03:52:48;;;;;;;2.85;1.13;;;13.00;99.90;;;;;;7406051;19;19919;-80
2023/06/08 03:55:18;;;;;;;2.03;1.13;;;12.90;99.90;;;;;;7405909;19;19946;-80
2023/06/08 03:57:47;;;;;;;1.88;0.93;;;13.00;99.90;;;;;;7401178;19;20002;-80
2023/06/08 04:00:20;;;;;;;1.92;1.00;;;13.00;99.90;;;;;;7406187;19;19914;-80
2023/06/08 04:02:50;;;;;;;1.77;0.80;;;13.10;99.90;;;;;;7407012;19;19927;-80
2023/06/08 04:05:19;;;;;;;2.10;1.10;;;13.10;99.90;;;;;;7404682;19;20559;-80
2023/06/08 04:07:51;;;;;;;2.50;0.88;;;13.10;99.90;;;;;;7402548;19;19922;-80
2023/06/08 04:10:20;;;;;;;2.78;1.20;;;13.00;99.90;;;;;;7404786;19;19922;-80
2023/06/08 04:12:50;;;;;;;1.88;1.05;;;13.10;99.90;;;;;;7405917;19;20644;-80
2023/06/08 04:15:22;;;;;;;2.20;0.98;;;13.20;99.90;;;;;;7405728;19;19927;-80
2023/06/08 04:17:51;;;;;;;;;;;13.10;99.90;;;;;;7406262;19;20292;-80
2023/06/08 04:20:20;;;;;;;2.22;1.00;;;13.10;99.90;;;;;;7406214;19;19918;-79
2023/06/08 04:22:49;;;;;;;2.03;1.10;;;12.90;99.90;;;;;;7404037;19;19943;-79
2023/06/08 04:25:19;;;;;;;2.83;1.20;;;13.00;99.90;;;;;;7406306;19;19922;-79
2023/06/08 04:27:48;;;;;;;2.10;1.02;;;13.20;99.90;;;;;;7402217;19;19911;-79
2023/06/08 04:30:17;;;;;;;1.95;0.98;;;13.20;99.90;;;;;;7406069;19;20505;-79
2023/06/08 04:33:09;;;;;;;;;;;13.00;99.90;;;;;;7404437;19;20466;-79
2023/06/08 04:35:58;;;;;;;1.95;1.13;;;13.10;99.90;;;;;;7402492;19;20231;-80
2023/06/08 04:38:47;;;;;;;3.53;1.30;;;13.10;99.90;;;;;;7401606;19;19929;-80
2023/06/08 04:41:35;;;;;;;2.15;1.20;;;13.00;99.90;;;;;;7402333;19;20264;-80
2023/06/08 04:44:25;;;;;;;2.45;1.05;;;13.00;99.90;;;;;;7402722;19;19910;-77
2023/06/08 04:47:14;;;;;;;3.00;0.90;;;12.90;99.90;;;;;;7401632;19;19947;-78
2023/06/08 04:50:08;;;;;;;3.45;1.50;;;13.10;99.90;;;;;;7403012;19;19918;-78
2023/06/08 04:52:58;;;;;;;1.50;1.00;;;13.20;99.90;;;;;;7401755;19;19926;-79
2023/06/08 04:55:48;;;;;;;2.28;1.23;;;13.20;99.90;;;;;;7402185;19;19930;-78
2023/06/08 04:58:17;;;;;;;1.48;1.23;;;13.30;99.90;;;;;;7401153;19;19918;-79
2023/06/08 05:00:47;;;;;;;1.35;1.17;;;13.30;99.90;;;;;;7403672;19;19915;-79
2023/06/08 05:03:16;;;;;;;1.35;1.17;;;13.30;99.90;;;;;;7403129;19;20423;-79
2023/06/08 05:05:47;;;;;;;1.40;1.20;;;13.40;99.90;;;;;;7403451;19;19953;-78
2023/06/08 05:08:18;;;;;;;2.55;1.13;;;13.50;99.90;;;;;;7403791;19;19919;-77
2023/06/08 05:10:47;;;;;;;2.35;1.23;;;13.40;99.90;;;;;;7402355;19;20040;-78
2023/06/08 05:13:16;;;;;;;3.17;1.17;;;13.40;99.90;;;;;;7402504;19;19918;-78
2023/06/08 05:15:45;;;;;;;2.20;1.20;;;13.30;99.90;;;;;;7401802;19;19922;-79
2023/06/08 05:18:14;;;;;;;1.58;1.17;;;13.50;99.90;;;;;;7401572;19;19919;-78
2023/06/08 05:20:47;;;;;;;2.15;1.30;;;13.50;99.90;;;;;;7400565;19;20341;-78
2023/06/08 05:23:20;;;;;;;2.00;1.40;;;13.50;99.90;;;;;;7401889;19;19915;-78
2023/06/08 05:25:49;;;;;;;3.38;1.30;;;13.50;99.90;;;;;;7395334;19;19918;-78
2023/06/08 05:28:18;;;;;;;1.95;1.30;;;13.50;99.90;;;;;;7378012;19;19942;-78
2023/06/08 05:30:51;;;;;;;2.45;1.50;;;13.60;99.90;;;;;;7397829;19;19926;-78
2023/06/08 05:33:20;;;;;;;2.30;1.00;;;13.70;99.90;;;;;;7399336;19;19918;-78
2023/06/08 05:35:55;;;;;;;1.77;1.27;;;13.50;99.90;;;;;;7401862;19;20547;-78
2023/06/08 05:38:24;;;;;;;2.13;0.98;;;13.50;99.90;;;;;;7402575;19;19970;-78
2023/06/08 05:40:56;;;;;;;1.63;1.17;;;13.50;99.90;;;;;;7398869;19;19943;-78
2023/06/08 05:43:26;;;;;;;2.03;0.90;;;13.50;99.90;;;;;;7403437;19;19937;-78
2023/06/08 05:45:55;;;;;;;1.77;0.95;;;13.50;99.90;;;;;;7402025;19;19921;-78
2023/06/08 05:48:25;;;;;;;1.90;0.85;;;13.50;99.90;;;;;;7399129;19;19919;-78
2023/06/08 05:50:57;;;;;;;1.98;0.98;;;13.70;99.90;;;;;;7398135;19;19918;-78
2023/06/08 05:53:26;;;;;;;2.38;0.90;;;13.70;99.90;;;;;;7396564;19;19922;-78
2023/06/08 05:55:56;;;;;;;1.40;1.05;;;13.70;99.90;;;;;;7399493;19;20080;-77
2023/06/08 05:58:25;;;;;;;2.78;1.10;;;13.70;99.90;;;;;;7391114;19;19922;-77
2023/06/08 06:01:05;;;;;;;;;;;;;;;;;;;;;
2023/06/08 06:03:37;;;;;;;3.10;1.08;;;13.70;99.90;;;;;;7397422;19;19922;-77
2023/06/08 06:06:10;;;;;;;1.38;0.80;;;13.60;99.90;;;;;;7399634;19;19925;-77
2023/06/08 06:08:41;;;;;;;3.10;0.95;;;13.60;99.90;;;;;;7397482;19;20209;-77
2023/06/08 06:11:10;;;;;;;3.05;1.10;;;13.60;99.90;;;;;;7397396;19;20006;-76
2023/06/08 06:13:40;;;;;;;1.20;0.73;;;13.70;99.90;;;;;;7396392;19;19934;-77
2023/06/08 06:16:09;;;;;;;2.03;0.85;;;13.70;99.90;;;;;;7382727;19;19930;-79
2023/06/08 06:18:55;;;;;;;2.55;1.02;;;13.60;99.90;;;;;;7395779;19;19950;-77
2023/06/08 06:24:23;;;;;;;2.22;0.80;;;13.90;99.90;;;;;;7396394;19;19915;-78
2023/06/08 06:29:59;;;;;;;2.40;0.90;;;13.80;99.90;;;;;;7404038;19;19994;-78
2023/06/08 06:32:42;;;;;;;1.50;0.90;;;13.90;99.90;;;;;;7407306;19;19922;-78
2023/06/08 06:35:12;;;;;;;2.13;0.90;;;13.80;99.90;;;;;;7409092;19;19914;-78
2023/06/08 06:37:55;;;;;;;;;;;;;;;;;;;;;
2023/06/08 06:40:27;;;;;;;3.20;1.23;;;13.90;99.90;;;;;;7405984;19;19926;-79
2023/06/08 06:42:57;;;;;;;2.33;0.80;;;14.10;99.90;;;;;;7406535;19;19935;-79
2023/06/08 06:48:25;;;;;;;1.65;0.90;;;14.00;99.90;;;;;;7408613;19;19932;-78
2023/06/08 06:50:54;;;;;;;2.50;1.08;;;14.10;99.90;;;;;;7407132;19;19921;-78
2023/06/08 06:53:51;;;;;;;2.58;0.93;;;14.10;99.90;;;;;;7405158;19;19933;-78
2023/06/08 06:56:24;;;;;;;2.03;0.93;;;14.30;99.90;;;;;;7406798;19;19931;-78
2023/06/08 06:59:04;;;;;;;3.55;0.98;;;14.30;99.90;;;;;;7404083;19;20012;-78
2023/06/08 07:01:36;;;;;;;1.50;0.90;;;14.30;99.90;;;;;;7407911;19;20298;-79
2023/06/08 07:04:06;;;;;;;2.92;0.95;;;14.30;99.90;;;;;;7406984;19;19914;-79
2023/06/08 07:06:42;;;;;;;2.08;1.00;;;14.30;99.90;;;;;;7407725;19;19914;-78
2023/06/08 07:09:13;;;;;;;4.63;1.10;;;14.40;99.90;;;;;;7407356;19;19926;-78
2023/06/08 07:12:33;;;;;;;2.70;1.20;;;14.50;99.90;;;;;;7405468;19;19922;-79
2023/06/08 07:18:31;;;;;;;3.97;0.93;;;14.50;99.90;;;;;;7401092;19;19926;-78
2023/06/08 07:21:23;;;;;;;2.83;1.17;;;14.40;99.90;;;;;;7403335;19;20340;-78
2023/06/08 07:23:57;;;;;;;2.22;1.10;;;14.50;99.90;;;;;;7405704;19;19931;-78
2023/06/08 07:26:28;;;;;;;2.88;0.90;;;14.50;99.90;;;;;;7404435;19;19930;-79
2023/06/08 07:29:02;;;;;;;2.47;1.08;;;14.50;99.90;;;;;;7402726;19;19957;-79
2023/06/08 07:31:44;;;;;;;2.28;1.08;;;14.60;99.90;;;;;;7404500;19;19933;-79
2023/06/08 07:34:13;;;;;;;2.08;1.05;;;14.60;99.90;;;;;;7406823;19;19923;-78
2023/06/08 07:36:43;;;;;;;2.80;1.00;;;14.70;99.90;;;;;;7403802;19;19926;-78
2023/06/08 07:39:15;;;;;;;4.07;0.98;;;14.70;99.90;;;;;;7404512;19;19907;-78
2023/06/08 07:41:50;;;;;;;3.75;1.27;;;14.80;99.90;;;;;;7405436;19;19932;-79
2023/06/08 07:44:30;;;;;;;2.00;0.75;;;14.70;99.90;;;;;;7404536;19;19918;-79
2023/06/08 07:50:17;;;;;;;1.38;0.90;;;15.00;99.90;;;;;;7401377;19;19922;-79
2023/06/08 07:52:56;;;;;;;1.85;1.00;;;15.00;99.90;;;;;;7403535;19;19915;-79
2023/06/08 07:55:29;;;;;;;2.45;0.82;;;15.00;99.90;;;;;;7403849;19;20279;-79
2023/06/08 08:03:48;;;;;;;3.17;1.30;;;15.30;99.90;;;;;;7403632;19;19931;-79
2023/06/08 08:06:23;;;;;;;2.20;0.90;;;15.30;99.90;;;;;;7404705;19;19915;-79
2023/06/08 08:08:55;;;;;;;2.20;1.10;;;15.30;99.90;;;;;;7404813;19;19918;-78
2023/06/08 08:11:26;;;;;;;2.38;1.00;;;15.50;99.90;;;;;;7403901;19;19935;-79
2023/06/08 08:13:56;;;;;;;3.25;1.40;;;15.50;99.90;;;;;;7403171;19;19928;-79
2023/06/08 08:16:33;;;;;;;2.00;1.10;;;15.60;99.90;;;;;;7402794;19;19930;-79
2023/06/08 08:19:05;;;;;;;2.13;0.90;;;16.20;99.90;;;;;;7402915;19;19925;-79
2023/06/08 08:21:56;;;;;;;2.85;1.30;;;15.70;99.90;;;;;;7402534;19;19915;-79
2023/06/08 08:24:32;;;;;;;1.55;0.90;;;15.70;99.90;;;;;;7404143;19;19961;-79
2023/06/08 08:27:02;;;;;;;2.03;1.05;;;15.70;99.90;;;;;;7404223;19;19937;-79
2023/06/08 08:29:34;;;;;;;3.25;0.93;;;15.70;99.90;;;;;;7401570;19;19926;-79
2023/06/08 08:32:54;;;;;;;2.08;0.80;;;15.90;99.90;;;;;;7411944;19;19919;-79
2023/06/08 08:35:43;;;;;;;2.55;1.05;;;15.90;99.90;;;;;;7403743;19;19939;-79
2023/06/08 08:38:18;;;;;;;2.40;1.00;;;16.20;99.90;;;;;;7404913;19;20349;-79
2023/06/08 08:40:55;;;;;;;2.85;1.20;;;16.00;99.90;;;;;;7406266;19;19972;-79
2023/06/08 08:43:50;;;;;;;;;;;16.20;99.90;;;;;;7406058;19;19923;-79
2023/06/08 08:46:23;;;;;;;1.83;1.00;;;16.30;99.90;;;;;;7402053;19;19919;-78
2023/06/08 08:48:53;;;;;;;1.20;1.00;;;16.40;99.90;;;;;;7404056;19;19922;-78
2023/06/08 08:51:38;;;;;;;2.88;1.08;;;16.40;99.90;;;;;;7404471;19;19931;-79
2023/06/08 08:54:12;;;;;;;3.15;0.90;;;16.50;99.90;;;;;;7403759;19;19918;-79
2023/06/08 08:56:44;;;;;;;2.30;1.10;;;16.60;99.90;;;;;;7402373;19;19922;-80
2023/06/08 08:59:27;;;;;;;2.17;0.88;;;16.70;99.90;;;;;;7403567;19;19926;-79
2023/06/08 09:05:07;;;;;;;1.67;0.90;;;16.80;99.90;;;;;;7402345;19;19911;-80
2023/06/08 09:08:01;;;;;;;1.15;0.80;;;16.80;99.90;;;;;;7406718;19;19918;-80
2023/06/08 09:10:39;;;;;;;2.92;0.95;;;16.90;99.90;;;;;;7403130;19;20435;-80
2023/06/08 09:16:52;;;;;;;;;;;;;;;;;;;;;
2023/06/08 09:20:11;;;;;;;1.45;0.90;;;17.20;99.90;;;;;;7400409;19;19910;-79
2023/06/08 09:22:50;;;;;;;2.25;0.77;;;17.10;99.90;;;;;;7402371;19;20345;-79
2023/06/08 09:25:39;;;;;;;4.03;1.00;;;17.30;99.90;;;;;;7403394;19;19918;-79
2023/06/08 09:35:43;;;;;;;1.88;0.82;;;17.60;99.90;;;;;;7398769;19;19919;-79
2023/06/08 09:41:16;;;;;;;3.25;1.10;;;17.60;99.90;;;;;;7401893;19;20543;-79
2023/06/08 09:43:50;;;;;;;2.97;1.33;;;18.00;99.90;;;;;;7401398;19;19971;-79
2023/06/08 09:46:38;;;;;;;1.55;1.00;;;17.90;99.90;;;;;;7402810;19;19951;-79
2023/06/08 09:49:13;;;;;;;3.95;1.20;;;18.00;99.90;;;;;;7400964;19;19922;-80
2023/06/08 09:51:54;;;;;;;1.45;0.80;;;18.20;99.90;;;;;;7398681;19;20276;-80
2023/06/08 09:54:34;;;;;;;;;;;;;;;;;;;;;
2023/06/08 09:57:05;;;;;;;2.08;0.90;;;19.70;99.90;;;;;;7385944;19;19920;-84
2023/06/08 09:59:46;;;;;;;3.88;0.98;;;18.50;99.90;;;;;;7402355;19;19927;-86
2023/06/08 10:02:22;;;;;;;2.75;1.08;;;18.60;99.90;;;;;;7406741;19;19930;-84
2023/06/08 10:04:57;;;;;;;2.42;0.90;;;18.70;99.90;;;;;;7409197;19;19922;-84
2023/06/08 10:07:35;;;;;;;1.85;0.95;;;18.80;99.90;;;;;;7406012;19;19993;-83
2023/06/08 10:10:16;;;;;;;2.72;1.30;;;19.20;99.90;;;;;;7406781;19;20471;-83
2023/06/08 10:12:49;;;;;;;1.48;0.90;;;19.20;99.90;;;;;;7406161;19;20303;-86
2023/06/08 10:15:21;;;;;;;1.65;0.80;;;19.20;99.90;;;;;;7407427;19;20021;-85
2023/06/08 10:17:51;;;;;;;2.47;1.00;;;19.30;99.90;;;;;;7400671;19;19922;-85
2023/06/08 10:20:23;;;;;;;2.70;1.02;;;19.50;99.90;;;;;;7403059;19;19919;-89
2023/06/08 10:22:53;;;;;;;2.55;1.05;;;19.50;99.90;;;;;;7402055;19;19954;-87
2023/06/08 10:31:45;;;;;;;2.83;1.10;;;19.60;99.90;;;;;;7405900;19;19927;-83
2023/06/08 10:34:19;;;;;;;2.10;1.00;;;19.70;99.90;;;;;;7407229;19;19939;-84
2023/06/08 10:36:58;;;;;;;4.80;1.10;;;20.00;99.90;;;;;;7406205;19;19990;-85
2023/06/08 10:39:28;;;;;;;2.28;1.20;;;19.90;99.90;;;;;;7406597;19;19922;-83
2023/06/08 10:42:00;;;;;;;1.17;1.00;;;20.10;99.90;;;;;;7404415;19;19933;-85
2023/06/08 10:44:35;;;;;;;1.98;1.10;;;20.10;99.90;;;;;;7408554;19;19947;-82
2023/06/08 10:47:35;;;;;;;3.13;1.00;;;20.10;99.90;;;;;;7406786;19;19921;-86
2023/06/08 10:50:10;;;;;;;1.98;0.90;;;20.10;99.90;;;;;;7403971;19;19936;-86
2023/06/08 10:52:58;;;;;;;2.20;1.00;;;20.40;99.90;;;;;;7405157;19;19919;-87
2023/06/08 10:55:40;;;;;;;3.33;0.80;;;20.30;99.90;;;;;;7405119;19;19930;-86
2023/06/08 10:58:54;;;;;;;1.23;1.00;;;20.60;99.90;;;;;;7403954;19;19926;-87
2023/06/08 11:01:25;;;;;;;1.80;0.90;;;20.60;99.90;;;;;;7401112;19;19944;-87
2023/06/08 11:04:00;;;;;;;1.80;0.95;;;20.70;99.90;;;;;;7398996;19;19940;-85
2023/06/08 11:06:31;;;;;;;2.17;1.00;;;20.90;99.90;;;;;;7405989;19;19939;-86
2023/06/08 11:09:07;;;;;;;2.00;0.95;;;21.20;99.90;;;;;;7402303;19;19933;-86
2023/06/08 11:11:37;;;;;;;1.55;0.80;;;21.30;99.90;;;;;;7402416;19;19918;-86
2023/06/08 11:14:07;;;;;;;2.53;0.88;;;21.20;99.90;;;;;;7402304;19;19956;-85
2023/06/08 11:16:39;;;;;;;1.00;0.90;;;21.20;99.90;;;;;;7402719;19;19943;-86
2023/06/08 11:19:11;;;;;;;1.70;1.00;;;21.30;99.90;;;;;;7402713;19;19922;-87
2023/06/08 11:21:56;;;;;;;1.45;1.20;;;21.50;99.90;;;;;;7401785;19;19923;-83
2023/06/08 11:24:49;;;;;;;2.13;0.93;;;21.50;99.90;;;;;;7401218;19;19932;-85
2023/06/08 11:27:20;;;;;;;1.50;1.10;;;21.50;99.90;;;;;;7398137;19;19930;-80
2023/06/08 11:29:49;;;;;;;1.38;0.80;;;21.70;99.90;;;;;;7400866;19;20297;-80
2023/06/08 11:32:20;;;;;;;2.55;1.00;;;21.70;99.90;;;;;;7405713;19;19923;-79
2023/06/08 11:34:51;;;;;;;1.15;0.75;;;22.00;99.90;;;;;;7404390;19;19919;-81
2023/06/08 11:37:20;;;;;;;1.35;0.80;;;22.10;99.90;;;;;;7406302;19;19919;-81
2023/06/08 11:39:52;;;;;;;1.17;1.02;;;22.30;99.90;;;;;;7403050;19;20395;-81
2023/06/08 11:42:21;;;;;;;1.08;0.70;;;22.30;99.90;;;;;;7404667;19;19981;-81
2023/06/08 11:44:51;;;;;;;1.98;0.80;;;22.20;99.90;;;;;;7405948;19;20485;-81
2023/06/08 11:47:21;;;;;;;1.90;0.93;;;22.50;99.90;;;;;;7406270;19;19914;-79
2023/06/08 11:49:53;;;;;;;2.35;0.88;;;22.50;99.90;;;;;;7404917;19;19922;-80
2023/06/08 11:52:24;;;;;;;1.60;0.90;;;21.90;99.90;;;;;;7405080;19;19977;-80
2023/06/08 11:55:01;;;;;;;1.48;0.65;;;22.50;99.90;;;;;;7404898;19;19910;-79
2023/06/08 11:57:40;;;;;;;1.25;0.93;;;22.70;99.90;;;;;;7405862;19;19924;-81
2023/06/08 12:00:12;;;;;;;0.95;0.88;;;22.90;99.90;;;;;;7403994;19;19943;-81
2023/06/08 12:02:41;;;;;;;1.48;0.90;;;22.70;99.90;;;;;;7405618;19;20189;-81
2023/06/08 12:05:17;;;;;;;2.38;0.90;;;22.70;99.90;;;;;;7404545;19;20392;-81
2023/06/08 12:07:59;;;;;;;1.58;0.75;;;22.80;99.90;;;;;;7406047;19;19921;-82
2023/06/08 12:10:38;;;;;;;2.25;0.90;;;23.20;99.90;;;;;;7400740;19;19942;-81
2023/06/08 12:13:09;;;;;;;2.10;1.02;;;23.20;99.90;;;;;;7402702;19;19922;-81
2023/06/08 12:15:40;;;;;;;1.55;0.77;;;23.20;99.90;;;;;;7403199;19;19923;-81
2023/06/08 12:18:09;;;;;;;;;;;23.40;99.90;;;;;;7406532;19;19928;-81
2023/06/08 12:20:39;;;;;;;2.55;1.02;;;23.50;99.90;;;;;;7402860;19;19914;-81
2023/06/08 12:23:08;;;;;;;1.88;0.80;;;23.60;99.90;;;;;;7403793;19;19934;-81
2023/06/08 12:25:40;;;;;;;1.13;0.70;;;23.70;99.90;;;;;;7404062;19;20241;-81
2023/06/08 12:28:18;;;;;;;1.63;0.65;;;23.80;99.90;;;;;;7403990;19;19948;-81
2023/06/08 12:30:48;;;;;;;0.98;0.80;;;23.90;99.90;;;;;;7403312;19;19922;-81
2023/06/08 12:33:20;;;;;;;1.35;0.70;;;23.10;99.90;;;;;;7404375;19;19937;-82
2023/06/08 12:35:51;;;;;;;1.55;1.00;;;23.90;99.90;;;;;;7403493;19;19921;-80
2023/06/08 12:38:20;;;;;;;1.80;0.80;;;24.00;99.90;;;;;;7402466;19;19922;-85
2023/06/08 12:40:53;;;;;;;1.77;0.90;;;24.20;99.90;;;;;;7405752;19;20035;-91
2023/06/08 12:43:24;;;;;;;1.42;0.80;;;24.20;99.90;;;;;;7395368;19;19966;-89
2023/06/08 12:45:53;;;;;;;1.55;0.90;;;24.50;99.90;;;;;;7402469;19;19947;-86
2023/06/08 12:48:47;;;;;;;1.15;0.90;;;24.60;99.90;;;;;;7402027;19;19922;-86
2023/06/08 12:51:18;;;;;;;2.45;1.10;;;26.30;99.90;;;;;;7402163;19;20540;-89
2023/06/08 12:53:48;;;;;;;1.85;0.82;;;24.70;99.90;;;;;;7404043;19;19987;-89
2023/06/08 12:56:21;;;;;;;1.77;0.80;;;24.30;99.90;;;;;;7404603;19;19926;-89
2023/06/08 12:58:50;;;;;;;1.27;0.73;;;25.20;99.90;;;;;;7404282;19;19933;-91
2023/06/08 13:01:19;;;;;;;1.95;0.70;;;24.90;99.90;;;;;;7401363;19;19977;-91
2023/06/08 13:03:49;;;;;;;1.80;0.77;;;25.00;99.90;;;;;;7402756;19;19911;-85
2023/06/08 13:06:18;;;;;;;1.05;0.65;;;24.90;99.90;;;;;;7397120;19;19927;-83
2023/06/08 13:08:47;;;;;;;1.63;0.63;;;24.90;99.90;;;;;;7401167;19;20349;-83
2023/06/08 13:11:39;;;;;;;1.52;0.52;;;25.10;99.90;;;;;;7400199;19;19942;-84
2023/06/08 13:14:09;;;;;;;2.28;0.70;;;25.20;99.90;;;;;;7400940;19;19926;-84
2023/06/08 13:16:38;;;;;;;0.82;0.75;;;25.50;99.90;;;;;;7397852;19;20297;-84
2023/06/08 13:19:08;;;;;;;1.13;0.70;;;25.50;99.90;;;;;;7399772;19;19910;-84
2023/06/08 13:21:37;;;;;;;1.35;0.70;;;25.50;99.80;;;;;;7400542;19;19910;-84
2023/06/08 13:24:11;;;;;;;0.80;0.70;;;25.50;99.50;;;;;;7398401;19;19941;-84
2023/06/08 13:26:47;;;;;;;1.30;0.70;;;25.50;99.30;;;;;;7401591;19;19974;-85
2023/06/08 13:29:25;;;;;;;1.35;0.80;;;25.80;99.30;;;;;;7403076;19;19926;-84
2023/06/08 13:31:55;;;;;;;2.80;0.80;;;25.80;99.10;;;;;;7403259;19;19982;-84
2023/06/08 13:34:24;;;;;;;2.03;0.82;;;26.20;99.10;;;;;;7409765;19;19914;-84
2023/06/08 13:36:53;;;;;;;1.83;0.70;;;25.90;99.00;;;;;;7408621;19;19915;-84
2023/06/08 13:39:22;;;;;;;1.05;0.70;;;25.90;98.60;;;;;;7409079;19;20298;-85
2023/06/08 13:41:55;;;;;;;1.58;0.70;;;26.00;98.60;;;;;;7408398;19;20352;-84
2023/06/08 13:44:24;;;;;;;1.25;0.70;;;26.10;98.20;;;;;;7407130;19;19914;-84
2023/06/08 13:46:54;;;;;;;1.05;0.60;;;26.10;98.40;;;;;;7407981;19;20008;-85
2023/06/08 13:49:23;;;;;;;1.25;0.70;;;26.30;98.30;;;;;;7406802;19;19926;-85
2023/06/08 13:51:52;;;;;;;1.13;0.60;;;26.30;98.20;;;;;;7408212;19;20490;-84
2023/06/08 13:54:31;;;;;;;1.42;0.80;;;26.50;98.10;;;;;;7406303;19;19918;-84
2023/06/08 13:57:03;;;;;;;0.80;0.60;;;26.40;97.30;;;;;;7409249;19;20287;-83
2023/06/08 13:59:33;;;;;;;0.82;0.55;;;26.70;97.70;;;;;;7407326;19;19919;-84
2023/06/08 14:02:02;;;;;;;0.85;0.55;;;26.60;97.70;;;;;;7406715;19;20570;-84
2023/06/08 14:04:31;;;;;;;0.70;0.50;;;26.60;97.30;;;;;;7407420;19;20654;-84
2023/06/08 14:07:30;;;;;;;1.58;0.70;;;26.80;97.20;;;;;;7405306;19;19950;-84
2023/06/08 14:10:14;;;;;;;1.52;0.80;;;26.90;96.40;;;;;;7407145;19;19914;-84
2023/06/08 14:13:07;;;;;;;1.25;0.80;;;27.00;96.90;;;;;;7412211;19;19974;-84
2023/06/08 14:15:48;;;;;;;0.85;0.60;;;26.90;96.40;;;;;;7406663;19;19915;-84